createdAt,value
2023-04-07T00:00:15.983Z,42.97
2023-04-07T00:03:02.638Z,42.98
2023-04-07T00:05:48.253Z,42.92
2023-04-07T00:08:33.835Z,42.97
2023-04-07T00:11:19.189Z,42.84
2023-04-07T00:14:04.623Z,43.01
2023-04-07T00:16:49.887Z,42.89
2023-04-07T00:19:35.861Z,42.99
2023-04-07T00:22:21.299Z,42.98
2023-04-07T00:25:07.252Z,42.86
2023-04-07T00:27:52.517Z,43.04
2023-04-07T00:30:37.914Z,42.96
2023-04-07T00:33:23.155Z,42.88
2023-04-07T00:36:08.542Z,42.99
2023-04-07T00:38:53.764Z,42.90
2023-04-07T00:41:38.863Z,43.00
2023-04-07T00:44:24.298Z,43.03
2023-04-07T00:47:09.706Z,42.91
2023-04-07T00:49:55.093Z,43.07
2023-04-07T00:52:40.984Z,42.99
2023-04-07T00:55:26.417Z,42.88
2023-04-07T00:58:11.914Z,42.91
2023-04-07T01:01:21.825Z,42.88
2023-04-07T01:04:28.432Z,42.91
2023-04-07T01:07:46.569Z,42.86
2023-04-07T01:11:03.857Z,42.96
2023-04-07T01:13:54.461Z,42.85
2023-04-07T01:17:00.192Z,42.72
2023-04-07T01:20:08.428Z,42.69
2023-04-07T01:22:57.425Z,42.86
2023-04-07T01:25:59.889Z,42.82
2023-04-07T01:28:48.204Z,42.85
2023-04-07T01:31:37.314Z,42.88
2023-04-07T01:34:26.009Z,42.94
2023-04-07T01:37:11.918Z,43.01
2023-04-07T01:39:57.137Z,42.83
2023-04-07T01:42:44.764Z,42.85
2023-04-07T01:45:31.918Z,42.85
2023-04-07T01:48:18.316Z,42.95
2023-04-07T01:51:05.880Z,42.91
2023-04-07T01:53:53.029Z,43.02
2023-04-07T01:56:38.552Z,42.86
2023-04-07T01:59:25.441Z,42.98
2023-04-07T02:02:12.499Z,43.01
2023-04-07T02:05:05.959Z,43.08
2023-04-07T02:08:02.367Z,43.08
2023-04-07T02:10:50.511Z,43.07
2023-04-07T02:13:37.795Z,42.92
2023-04-07T02:16:24.166Z,43.02
2023-04-07T02:19:10.976Z,43.00
2023-04-07T02:21:57.512Z,43.04
2023-04-07T02:24:43.021Z,43.00
2023-04-07T02:27:28.755Z,42.89
2023-04-07T02:30:14.323Z,43.01
2023-04-07T02:32:59.966Z,42.99
2023-04-07T02:35:45.383Z,43.10
2023-04-07T02:38:30.864Z,43.17
2023-04-07T02:41:16.528Z,43.04
2023-04-07T02:44:01.799Z,42.95
2023-04-07T02:46:47.013Z,42.65
2023-04-07T02:49:32.249Z,42.37
2023-04-07T02:52:18.134Z,42.61
2023-04-07T02:55:03.899Z,41.78
2023-04-07T02:57:49.728Z,42.03
2023-04-07T03:00:57.926Z,41.52
2023-04-07T03:03:47.946Z,41.26
2023-04-07T03:06:38.255Z,41.30
2023-04-07T03:09:29.526Z,41.00
2023-04-07T03:12:15.584Z,39.68
2023-04-07T03:15:01.295Z,40.23
2023-04-07T03:17:48.034Z,39.80
2023-04-07T03:20:34.835Z,40.20
2023-04-07T03:23:28.632Z,39.78
2023-04-07T03:26:16.606Z,39.75
2023-04-07T03:29:02.239Z,40.28
2023-04-07T03:31:49.378Z,40.15
2023-04-07T03:34:38.975Z,40.28
2023-04-07T03:37:25.202Z,40.49
2023-04-07T03:40:11.893Z,40.49
2023-04-07T03:42:57.508Z,40.46
2023-04-07T03:45:42.963Z,40.72
2023-04-07T03:48:29.504Z,40.73
2023-04-07T03:51:21.050Z,40.42
2023-04-07T03:54:11.604Z,40.73
2023-04-07T03:57:02.300Z,40.87
2023-04-07T03:59:51.345Z,40.97
2023-04-07T04:02:37.720Z,40.99
2023-04-07T04:05:24.908Z,40.98
2023-04-07T04:08:11.726Z,40.91
2023-04-07T04:10:59.418Z,40.94
2023-04-07T04:13:51.696Z,41.02
2023-04-07T04:16:38.403Z,41.07
2023-04-07T04:19:32.285Z,41.04
2023-04-07T04:22:22.793Z,41.01
2023-04-07T04:25:12.521Z,41.22
2023-04-07T04:28:02.309Z,41.89
2023-04-07T04:30:48.691Z,41.96
2023-04-07T04:33:35.237Z,42.14
2023-04-07T04:36:21.124Z,42.43
2023-04-07T04:39:08.345Z,42.14
2023-04-07T04:41:55.323Z,42.18
2023-04-07T04:44:43.868Z,42.33
2023-04-07T04:47:31.060Z,42.27
2023-04-07T04:50:17.989Z,42.16
2023-04-07T04:53:05.616Z,42.39
2023-04-07T04:55:53.139Z,42.11
2023-04-07T04:58:52.080Z,42.21
2023-04-07T05:01:47.333Z,42.04
2023-04-07T05:04:35.402Z,42.07
2023-04-07T05:07:33.787Z,41.51
2023-04-07T05:10:19.361Z,41.93
2023-04-07T05:13:09.008Z,42.38
2023-04-07T05:15:55.341Z,42.50
2023-04-07T05:18:40.738Z,42.27
2023-04-07T05:21:27.101Z,42.30
2023-04-07T05:24:15.514Z,42.23
2023-04-07T05:27:03.926Z,42.52
2023-04-07T05:29:50.256Z,42.60
2023-04-07T05:32:43.589Z,42.68
2023-04-07T05:35:39.393Z,42.61
2023-04-07T05:38:24.723Z,42.74
2023-04-07T05:41:13.591Z,42.71
2023-04-07T05:43:58.726Z,42.49
2023-04-07T05:46:48.063Z,42.14
2023-04-07T05:49:35.869Z,42.38
2023-04-07T05:52:25.344Z,42.24
2023-04-07T05:55:22.834Z,42.34
2023-04-07T05:58:09.366Z,42.16
2023-04-07T06:00:54.677Z,42.44
2023-04-07T06:03:41.338Z,42.27
2023-04-07T06:06:34.223Z,42.57
2023-04-07T06:09:20.086Z,42.33
2023-04-07T06:12:07.013Z,42.18
2023-04-07T06:14:54.169Z,42.09
2023-04-07T06:17:40.779Z,41.92
2023-04-07T06:20:27.775Z,41.82
2023-04-07T06:23:13.558Z,41.86
2023-04-07T06:25:59.410Z,41.72
2023-04-07T06:28:44.632Z,41.94
2023-04-07T06:31:29.890Z,42.11
2023-04-07T06:34:16.603Z,41.96
2023-04-07T06:37:02.524Z,42.14
2023-04-07T06:39:47.999Z,41.88
2023-04-07T06:42:33.082Z,41.88
2023-04-07T06:45:31.780Z,41.77
2023-04-07T06:48:16.888Z,41.37
2023-04-07T06:51:02.246Z,41.61
2023-04-07T06:53:48.944Z,41.75
2023-04-07T06:56:34.571Z,41.87
2023-04-07T06:59:19.724Z,42.19
2023-04-07T07:02:05.398Z,42.36
2023-04-07T07:04:51.156Z,42.01
2023-04-07T07:07:41.163Z,41.85
2023-04-07T07:10:26.583Z,41.71
2023-04-07T07:13:12.277Z,41.69
2023-04-07T07:15:57.833Z,41.59
2023-04-07T07:18:46.062Z,41.46
2023-04-07T07:21:34.212Z,41.65
2023-04-07T07:24:20.354Z,41.42
2023-04-07T07:27:06.497Z,41.42
2023-04-07T07:29:52.272Z,41.17
2023-04-07T07:32:38.010Z,40.97
2023-04-07T07:35:23.265Z,40.92
2023-04-07T07:38:08.820Z,40.48
2023-04-07T07:40:54.521Z,40.69
2023-04-07T07:43:46.419Z,40.65
2023-04-07T07:46:31.973Z,40.59
2023-04-07T07:49:17.708Z,40.35
2023-04-07T07:52:16.130Z,40.21
2023-04-07T07:55:11.208Z,40.23
2023-04-07T07:57:58.199Z,40.52
2023-04-07T08:00:49.084Z,40.35
2023-04-07T08:03:37.773Z,40.53
2023-04-07T08:06:25.004Z,40.51
2023-04-07T08:09:13.037Z,40.49
2023-04-07T08:12:00.828Z,40.76
2023-04-07T08:14:48.375Z,39.56
2023-04-07T08:17:38.847Z,39.78
2023-04-07T08:20:31.130Z,39.92
2023-04-07T08:23:19.279Z,40.06
2023-04-07T08:26:11.810Z,39.94
2023-04-07T08:29:06.397Z,40.10
2023-04-07T08:31:59.966Z,40.21
2023-04-07T08:34:50.142Z,40.21
2023-04-07T08:37:39.982Z,40.34
2023-04-07T08:40:26.366Z,40.40
2023-04-07T08:43:16.734Z,40.48
2023-04-07T08:46:04.660Z,40.43
2023-04-07T08:48:53.158Z,40.41
2023-04-07T08:51:46.486Z,40.58
2023-04-07T08:54:34.594Z,40.58
2023-04-07T08:57:30.753Z,40.69
2023-04-07T09:00:20.959Z,40.70
2023-04-07T09:03:12.070Z,41.02
2023-04-07T09:06:02.551Z,41.16
2023-04-07T09:08:48.904Z,41.37
2023-04-07T09:11:41.206Z,41.52
2023-04-07T09:14:34.747Z,41.52
2023-04-07T09:17:24.986Z,41.58
2023-04-07T09:20:18.234Z,41.64
2023-04-07T09:23:03.639Z,41.71
2023-04-07T09:25:49.638Z,41.79
2023-04-07T09:28:42.212Z,41.85
2023-04-07T09:31:48.396Z,41.91
2023-04-07T09:34:36.131Z,41.87
2023-04-07T09:37:23.032Z,41.93
2023-04-07T09:40:09.535Z,42.17
2023-04-07T09:42:55.139Z,42.00
2023-04-07T09:45:40.704Z,42.04
2023-04-07T09:48:26.171Z,42.02
2023-04-07T09:51:14.120Z,42.07
2023-04-07T09:53:59.504Z,42.03
2023-04-07T09:56:45.323Z,42.09
2023-04-07T09:59:32.273Z,42.23
2023-04-07T10:02:17.746Z,42.18
2023-04-07T10:05:03.391Z,41.93
2023-04-07T10:07:49.315Z,42.08
2023-04-07T10:10:36.582Z,42.23
2023-04-07T10:13:22.460Z,42.14
2023-04-07T10:16:08.485Z,42.32
2023-04-07T10:18:54.734Z,42.24
2023-04-07T10:21:42.392Z,42.32
2023-04-07T10:24:53.716Z,42.31
2023-04-07T10:27:53.375Z,42.38
2023-04-07T10:30:39.378Z,42.42
2023-04-07T10:33:54.044Z,42.38
2023-04-07T10:37:10.404Z,42.43
2023-04-07T10:40:21.628Z,42.39
2023-04-07T10:43:15.428Z,42.51
2023-04-07T10:46:00.692Z,42.43
2023-04-07T10:49:09.894Z,42.54
2023-04-07T10:52:13.471Z,42.56
2023-04-07T10:55:17.339Z,42.51
2023-04-07T10:58:23.159Z,42.61
2023-04-07T11:01:11.950Z,42.78
2023-04-07T11:03:59.270Z,42.61
2023-04-07T11:06:48.374Z,42.58
2023-04-07T11:09:33.878Z,42.67
2023-04-07T11:12:23.924Z,42.70
2023-04-07T11:15:24.692Z,42.60
2023-04-07T11:18:18.630Z,42.59
2023-04-07T11:21:05.794Z,42.62
2023-04-07T11:23:51.744Z,42.72
2023-04-07T11:26:39.355Z,42.72
2023-04-07T11:29:29.376Z,42.84
2023-04-07T11:32:14.874Z,42.79
2023-04-07T11:35:00.048Z,42.75
2023-04-07T11:37:45.729Z,42.75
2023-04-07T11:40:37.320Z,42.73
2023-04-07T11:43:27.898Z,42.80
2023-04-07T11:46:18.601Z,42.80
2023-04-07T11:49:14.551Z,42.72
2023-04-07T11:52:04.270Z,42.83
2023-04-07T11:54:53.265Z,42.65
2023-04-07T11:57:38.751Z,42.63
2023-04-07T12:00:24.133Z,42.68
2023-04-07T12:03:13.372Z,42.79
2023-04-07T12:05:58.807Z,42.76
2023-04-07T12:08:44.710Z,42.75
2023-04-07T12:11:30.327Z,42.72
2023-04-07T12:14:15.495Z,42.87
2023-04-07T12:17:03.422Z,42.59
2023-04-07T12:19:48.673Z,42.66
2023-04-07T12:22:34.085Z,42.63
2023-04-07T12:25:19.402Z,42.58
2023-04-07T12:28:04.593Z,42.52
2023-04-07T12:30:50.091Z,42.67
2023-04-07T12:33:35.501Z,42.68
2023-04-07T12:36:21.112Z,40.49
2023-04-07T12:39:06.516Z,40.50
2023-04-07T12:41:53.366Z,40.52
2023-04-07T12:44:39.058Z,40.89
2023-04-07T12:47:24.362Z,41.12
2023-04-07T12:50:10.160Z,41.49
2023-04-07T12:52:55.490Z,41.45
2023-04-07T12:55:40.871Z,41.60
2023-04-07T12:58:26.822Z,41.74
2023-04-07T13:01:12.315Z,41.81
2023-04-07T13:03:57.594Z,41.97
2023-04-07T13:06:43.603Z,41.54
2023-04-07T13:09:29.117Z,40.91
2023-04-07T13:12:14.523Z,41.00
2023-04-07T13:15:00.635Z,41.16
2023-04-07T13:17:46.763Z,40.89
2023-04-07T13:20:32.303Z,41.16
2023-04-07T13:23:18.775Z,41.97
2023-04-07T13:26:05.261Z,42.25
2023-04-07T13:28:50.892Z,42.21
2023-04-07T13:31:36.314Z,42.25
2023-04-07T13:34:21.910Z,42.34
2023-04-07T13:37:07.241Z,42.23
2023-04-07T13:39:52.803Z,42.12
2023-04-07T13:42:38.734Z,42.07
2023-04-07T13:45:24.046Z,42.29
2023-04-07T13:48:09.427Z,41.96
2023-04-07T13:50:54.547Z,42.13
2023-04-07T13:53:39.859Z,42.06
2023-04-07T13:56:25.251Z,42.04
2023-04-07T13:59:11.098Z,42.07
2023-04-07T14:01:56.811Z,41.78
2023-04-07T14:04:44.575Z,41.81
2023-04-07T14:07:29.926Z,42.00
2023-04-07T14:10:15.538Z,41.73
2023-04-07T14:13:01.633Z,41.98
2023-04-07T14:15:48.367Z,41.86
2023-04-07T14:18:34.014Z,41.82
2023-04-07T14:21:19.229Z,42.05
2023-04-07T14:24:04.648Z,41.92
2023-04-07T14:26:51.149Z,41.71
2023-04-07T14:29:36.814Z,42.06
2023-04-07T14:32:22.109Z,42.10
2023-04-07T14:35:07.692Z,40.75
2023-04-07T14:37:53.060Z,41.32
2023-04-07T14:40:38.494Z,41.65
2023-04-07T14:43:25.271Z,41.48
2023-04-07T14:46:17.424Z,41.42
2023-04-07T14:49:02.961Z,41.50
2023-04-07T14:51:51.227Z,40.70
2023-04-07T14:54:38.507Z,41.02
2023-04-07T14:57:24.413Z,40.93
2023-04-07T15:00:10.995Z,41.35
2023-04-07T15:02:57.015Z,41.38
2023-04-07T15:05:42.742Z,41.50
2023-04-07T15:08:28.311Z,41.70
2023-04-07T15:11:13.816Z,41.85
2023-04-07T15:14:00.742Z,42.05
2023-04-07T15:16:48.391Z,42.04
2023-04-07T15:19:34.448Z,42.16
2023-04-07T15:22:19.990Z,42.32
2023-04-07T15:25:05.813Z,42.13
2023-04-07T15:27:51.329Z,42.27
2023-04-07T15:30:37.325Z,42.30
2023-04-07T15:33:24.646Z,41.88
2023-04-07T15:36:10.992Z,42.13
2023-04-07T15:38:57.292Z,42.35
2023-04-07T15:41:44.101Z,42.25
2023-04-07T15:44:33.455Z,42.40
2023-04-07T15:47:20.485Z,42.42
2023-04-07T15:50:07.643Z,42.40
2023-04-07T15:52:53.022Z,42.54
2023-04-07T15:55:41.838Z,42.54
2023-04-07T15:58:34.379Z,42.63
2023-04-07T16:01:21.261Z,42.32
2023-04-07T16:04:12.731Z,42.59
2023-04-07T16:07:01.568Z,42.62
2023-04-07T16:09:48.478Z,42.45
2023-04-07T16:12:39.991Z,42.63
2023-04-07T16:15:36.789Z,42.51
2023-04-07T16:18:28.557Z,43.06
2023-04-07T16:21:18.740Z,42.99
2023-04-07T16:24:12.652Z,42.76
2023-04-07T16:27:06.456Z,42.95
2023-04-07T16:29:52.037Z,43.04
2023-04-07T16:32:37.311Z,43.13
2023-04-07T16:35:23.745Z,43.14
2023-04-07T16:38:10.496Z,43.31
2023-04-07T16:41:04.286Z,43.06
2023-04-07T16:43:50.998Z,43.09
2023-04-07T16:46:36.571Z,43.33
2023-04-07T16:49:26.157Z,43.41
2023-04-07T16:52:12.346Z,42.99
2023-04-07T16:54:58.220Z,43.19
2023-04-07T16:57:43.619Z,43.03
2023-04-07T17:00:28.866Z,42.95
2023-04-07T17:03:15.392Z,43.24
2023-04-07T17:06:05.537Z,43.02
2023-04-07T17:08:50.868Z,42.95
2023-04-07T17:11:36.312Z,42.92
2023-04-07T17:14:21.819Z,42.99
2023-04-07T17:17:07.475Z,43.25
2023-04-07T17:19:52.949Z,43.26
2023-04-07T17:22:38.312Z,43.19
2023-04-07T17:25:24.959Z,42.98
2023-04-07T17:28:11.043Z,42.98
2023-04-07T17:30:56.567Z,43.07
2023-04-07T17:33:42.025Z,42.85
2023-04-07T17:36:27.816Z,43.03
2023-04-07T17:39:13.144Z,42.11
2023-04-07T17:41:58.547Z,41.87
2023-04-07T17:44:43.875Z,42.47
2023-04-07T17:47:29.259Z,42.55
2023-04-07T17:50:17.628Z,42.42
2023-04-07T17:53:03.533Z,42.68
2023-04-07T17:55:49.693Z,42.59
2023-04-07T17:58:35.963Z,42.58
2023-04-07T18:01:23.490Z,42.67
2023-04-07T18:04:09.180Z,42.77
2023-04-07T18:06:54.669Z,42.94
2023-04-07T18:09:41.779Z,43.03
2023-04-07T18:12:27.196Z,42.97
2023-04-07T18:15:13.834Z,42.79
2023-04-07T18:17:59.946Z,42.80
2023-04-07T18:20:47.543Z,42.84
2023-04-07T18:23:33.706Z,42.45
2023-04-07T18:26:19.582Z,42.86
2023-04-07T18:29:05.113Z,42.49
2023-04-07T18:31:50.712Z,42.57
2023-04-07T18:34:36.698Z,42.57
2023-04-07T18:37:22.497Z,42.50
2023-04-07T18:40:08.784Z,42.62
2023-04-07T18:42:55.491Z,42.57
2023-04-07T18:45:41.181Z,42.53
2023-04-07T18:48:27.384Z,42.44
2023-04-07T18:51:13.286Z,42.40
2023-04-07T18:53:59.050Z,42.44
2023-04-07T18:56:45.983Z,42.47
2023-04-07T18:59:31.503Z,42.61
2023-04-07T19:02:17.229Z,42.61
2023-04-07T19:05:02.606Z,42.80
2023-04-07T19:07:47.928Z,42.68
2023-04-07T19:10:33.560Z,41.94
2023-04-07T19:13:19.492Z,42.71
2023-04-07T19:16:05.889Z,42.55
2023-04-07T19:18:52.343Z,42.41
2023-04-07T19:21:40.274Z,42.04
2023-04-07T19:24:26.239Z,42.07
2023-04-07T19:27:12.745Z,42.17
2023-04-07T19:29:58.883Z,42.16
2023-04-07T19:32:47.109Z,42.35
2023-04-07T19:35:33.403Z,42.11
2023-04-07T19:38:19.526Z,42.17
2023-04-07T19:41:04.986Z,42.09
2023-04-07T19:43:50.667Z,42.15
2023-04-07T19:46:36.559Z,41.88
2023-04-07T19:49:22.365Z,41.77
2023-04-07T19:52:08.048Z,41.97
2023-04-07T19:54:53.290Z,41.96
2023-04-07T19:57:40.453Z,41.55
2023-04-07T20:00:25.634Z,41.57
2023-04-07T20:03:11.280Z,41.68
2023-04-07T20:05:57.208Z,41.37
2023-04-07T20:08:42.668Z,41.27
2023-04-07T20:11:28.361Z,41.37
2023-04-07T20:14:13.508Z,41.04
2023-04-07T20:16:58.887Z,40.86
2023-04-07T20:19:44.175Z,41.04
2023-04-07T20:22:29.423Z,40.95
2023-04-07T20:25:14.830Z,40.89
2023-04-07T20:28:00.393Z,40.87
2023-04-07T20:30:46.639Z,41.10
2023-04-07T20:33:31.838Z,41.05
2023-04-07T20:36:17.998Z,40.86
2023-04-07T20:39:04.202Z,40.89
2023-04-07T20:41:49.608Z,40.96
2023-04-07T20:44:34.983Z,40.92
2023-04-07T20:47:20.327Z,40.68
2023-04-07T20:50:06.610Z,40.56
2023-04-07T20:52:52.734Z,40.60
2023-04-07T20:55:38.328Z,40.62
2023-04-07T20:58:24.067Z,40.38
2023-04-07T21:01:09.422Z,40.41
2023-04-07T21:03:54.867Z,40.47
2023-04-07T21:06:42.086Z,40.47
2023-04-07T21:09:27.217Z,40.49
2023-04-07T21:12:12.569Z,40.32
2023-04-07T21:14:57.826Z,40.21
2023-04-07T21:17:43.173Z,40.06
2023-04-07T21:20:28.737Z,40.47
2023-04-07T21:23:14.115Z,40.12
2023-04-07T21:26:03.769Z,40.15
2023-04-07T21:28:52.015Z,39.13
2023-04-07T21:31:37.517Z,38.71
2023-04-07T21:34:23.208Z,38.61
2023-04-07T21:37:08.561Z,38.38
2023-04-07T21:39:54.098Z,38.35
2023-04-07T21:42:39.669Z,38.09
2023-04-07T21:45:24.938Z,38.36
2023-04-07T21:48:10.234Z,38.24
2023-04-07T21:50:55.894Z,38.11
2023-04-07T21:53:41.476Z,38.14
2023-04-07T21:56:28.960Z,37.59
2023-04-07T22:12:51.250Z,37.85
2023-04-07T22:15:36.726Z,37.86
2023-04-07T22:18:22.271Z,37.78
2023-04-07T22:21:07.840Z,37.99
2023-04-07T22:23:53.168Z,37.88
2023-04-07T22:26:38.532Z,37.80
2023-04-07T22:29:23.823Z,37.88
2023-04-07T22:32:09.158Z,37.97
2023-04-07T22:34:54.950Z,37.90
2023-04-07T22:37:40.645Z,37.96
2023-04-07T22:40:25.941Z,37.69
2023-04-07T22:43:11.833Z,37.73
2023-04-07T22:45:57.160Z,37.79
2023-04-07T22:48:42.590Z,37.59
2023-04-07T22:51:29.381Z,37.76
2023-04-07T22:54:18.504Z,37.79
2023-04-07T22:57:04.216Z,37.67
2023-04-07T22:59:49.350Z,37.70
2023-04-07T23:02:34.653Z,37.90
2023-04-07T23:05:19.881Z,37.90
2023-04-07T23:08:05.034Z,37.78
2023-04-07T23:10:50.435Z,37.77
2023-04-07T23:13:35.824Z,37.97
2023-04-07T23:16:21.485Z,37.67
2023-04-07T23:19:07.276Z,37.86
2023-04-07T23:21:53.584Z,37.87
2023-04-07T23:24:39.239Z,37.74
2023-04-07T23:27:24.413Z,37.91
2023-04-07T23:30:10.113Z,37.92
2023-04-07T23:32:55.478Z,38.07
2023-04-07T23:35:40.958Z,38.29
2023-04-07T23:38:26.661Z,38.04
2023-04-07T23:41:12.065Z,38.05
2023-04-07T23:43:57.706Z,37.94
2023-04-07T23:46:42.937Z,37.87
2023-04-07T23:49:29.241Z,37.95
2023-04-07T23:52:15.220Z,37.81
2023-04-07T23:55:00.824Z,37.99
2023-04-07T23:57:46.487Z,38.05
